Crossnore, North Carolina
Current Conditions -  °F | °C
As of 9:15 PM on Monday 22 Dec 2014 (Local Time) from KTNB Reporting Station
Light Rain Light Rain  
Wind Chill: 35°   Ceiling: 100
Heat Index: 35°   Visibility: 1mi
Dew Point: 35°   Wind: 0mph
Humidity: 100%   Direction: NA
Pressure: 30"   Gusts: NA
Location:  36.02°N, 81.93°W
Report Text: KTNB 230215Z AUTO 00000KT 1SM -RA OVC001 01/01 A3000 RMK AO2 T00140014
Loading
Personal Weather Stations






























Interactive Weather Map New forecast layout! Learn more

10-Day Weather Forecast

Advertisements
Track Severe Weather on mobile